Time;durP1;ratioP1;P1;durP2;ratioP2;P2;SDS_P1;SDS_P2;PMS_P1;PMS_P2;Temp;Humidity;BMP_temperature;BMP_pressure;BME280_temperature;BME280_humidity;BME280_pressure;Samples;Min_cycle;Max_cycle;Signal;HPM_P1;HPM_P2
2023/09/02 00:02:17;;;;;;;6.17;5.60;;;21.20;99.90;;;;;;5104127;28;20230;-80
2023/09/02 00:04:43;;;;;;;6.50;5.80;;;21.20;99.90;;;;;;5105881;28;20203;-80
2023/09/02 00:07:08;;;;;;;7.37;5.93;;;21.20;99.90;;;;;;5103934;28;20218;-80
2023/09/02 00:09:34;;;;;;;6.97;6.27;;;21.20;99.90;;;;;;5105805;28;20810;-79
2023/09/02 00:11:59;;;;;;;9.90;7.10;;;21.00;99.90;;;;;;5105347;28;20368;-80
2023/09/02 00:14:25;;;;;;;7.23;6.53;;;20.90;99.90;;;;;;5105966;28;20191;-81
2023/09/02 00:16:51;;;;;;;10.60;7.20;;;20.80;99.90;;;;;;5105105;28;20183;-80
2023/09/02 00:19:16;;;;;;;8.23;6.60;;;20.60;99.90;;;;;;5105433;28;20235;-79
2023/09/02 00:21:42;;;;;;;8.37;6.53;;;20.50;99.90;;;;;;5104114;28;20172;-80
2023/09/02 00:24:08;;;;;;;6.80;6.17;;;20.40;99.90;;;;;;5105269;28;20252;-80
2023/09/02 00:26:34;;;;;;;7.10;5.50;;;20.40;99.90;;;;;;5103328;28;20566;-80
2023/09/02 00:29:00;;;;;;;8.53;6.80;;;20.40;99.90;;;;;;5103524;28;20527;-79
2023/09/02 00:31:27;;;;;;;6.93;6.23;;;20.40;99.90;;;;;;5105598;28;20822;-80
2023/09/02 00:33:53;;;;;;;6.13;5.53;;;20.40;99.90;;;;;;5105567;28;20456;-80
2023/09/02 00:36:19;;;;;;;5.87;5.33;;;20.40;99.90;;;;;;5105383;28;20473;-80
2023/09/02 00:38:44;;;;;;;7.07;6.47;;;20.30;99.90;;;;;;5105249;28;20242;-79
2023/09/02 00:41:16;;;;;;;6.97;6.30;;;20.30;99.90;;;;;;5103907;28;20427;-81
2023/09/02 00:43:41;;;;;;;6.23;5.63;;;20.20;99.90;;;;;;5104089;28;20196;-79
2023/09/02 00:46:09;;;;;;;8.43;5.87;;;20.20;99.90;;;;;;5103766;28;20488;-81
2023/09/02 00:48:35;;;;;;;7.03;6.30;;;20.10;99.90;;;;;;5104331;28;20179;-79
2023/09/02 00:51:01;;;;;;;7.17;6.47;;;20.00;99.90;;;;;;5104818;28;20420;-81
2023/09/02 00:53:28;;;;;;;7.70;6.43;;;19.90;99.90;;;;;;5107356;28;20403;-80
2023/09/02 00:55:54;;;;;;;7.20;6.43;;;19.90;99.90;;;;;;5107549;28;20202;-81
2023/09/02 00:58:20;;;;;;;7.47;6.27;;;19.90;99.90;;;;;;5107730;28;20471;-81
2023/09/02 01:00:47;;;;;;;7.00;6.40;;;19.80;99.90;;;;;;5107818;28;20454;-79
2023/09/02 01:03:14;;;;;;;8.03;6.47;;;19.70;99.90;;;;;;5108512;28;20926;-80
2023/09/02 01:05:40;;;;;;;7.17;6.40;;;19.70;99.90;;;;;;5108963;28;20936;-79
2023/09/02 01:08:06;;;;;;;7.83;6.00;;;19.60;99.90;;;;;;5109477;28;20895;-80
2023/09/02 01:10:37;;;;;;;7.37;6.50;;;19.60;99.90;;;;;;5107105;28;20967;-79
2023/09/02 01:13:03;;;;;;;7.47;6.50;;;19.60;99.90;;;;;;5108712;28;20460;-79
2023/09/02 01:15:30;;;;;;;7.40;6.70;;;19.60;99.90;;;;;;5108453;28;20443;-81
2023/09/02 01:17:56;;;;;;;7.17;6.47;;;19.70;99.90;;;;;;5107257;28;20423;-80
2023/09/02 01:20:24;;;;;;;8.50;7.00;;;19.70;99.90;;;;;;5108163;28;20859;-81
2023/09/02 01:23:11;;;;;;;7.33;6.67;;;19.70;99.90;;;;;;5107064;28;20301;-81
2023/09/02 01:26:22;;;;;;;6.90;6.10;;;19.70;99.90;;;;;;5108725;28;20763;-79
2023/09/02 01:28:52;;;;;;;8.20;7.40;;;19.60;99.90;;;;;;5105683;28;20939;-79
2023/09/02 01:31:18;;;;;;;7.50;6.60;;;19.60;99.90;;;;;;5107918;28;20446;-79
2023/09/02 01:33:47;;;;;;;7.20;6.13;;;19.50;99.90;;;;;;5107164;28;20535;-79
2023/09/02 01:36:14;;;;;;;8.87;6.67;;;19.50;99.90;;;;;;5108462;28;20432;-79
2023/09/02 01:38:40;;;;;;;6.60;6.00;;;19.50;99.90;;;;;;5108367;28;20864;-79
2023/09/02 01:41:08;;;;;;;6.87;6.27;;;19.50;99.90;;;;;;5106732;28;21117;-79
2023/09/02 01:43:35;;;;;;;7.80;7.03;;;19.50;99.90;;;;;;5108068;28;20465;-79
2023/09/02 01:46:01;;;;;;;7.03;6.43;;;19.50;99.90;;;;;;5108096;27;20994;-79
2023/09/02 01:48:28;;;;;;;6.70;6.10;;;19.50;99.90;;;;;;5108245;28;20494;-80
2023/09/02 01:50:54;;;;;;;7.43;6.73;;;19.50;99.90;;;;;;5107262;28;20462;-80
2023/09/02 01:53:20;;;;;;;7.80;7.10;;;19.50;99.90;;;;;;5108022;28;20552;-80
2023/09/02 01:55:46;;;;;;;6.90;6.20;;;19.50;99.90;;;;;;5108082;28;20446;-80
2023/09/02 01:58:12;;;;;;;7.90;6.70;;;19.50;99.90;;;;;;5106660;28;20614;-79
2023/09/02 02:00:40;;;;;;;6.60;5.97;;;19.50;99.90;;;;;;5106255;28;20447;-79
2023/09/02 02:03:23;;;;;;;7.30;5.80;;;19.50;99.90;;;;;;5105857;28;20217;-81
2023/09/02 02:05:53;;;;;;;7.03;6.27;;;19.50;99.90;;;;;;5105842;28;20596;-81
2023/09/02 02:08:24;;;;;;;8.23;6.80;;;19.50;99.90;;;;;;5107779;27;20816;-79
2023/09/02 02:10:52;;;;;;;6.63;5.97;;;19.40;99.90;;;;;;5105936;28;20451;-79
2023/09/02 02:13:18;;;;;;;7.57;6.80;;;19.40;99.90;;;;;;5107693;28;20544;-81
2023/09/02 02:15:44;;;;;;;8.40;7.60;;;19.40;99.90;;;;;;5105836;28;20545;-80
2023/09/02 02:18:10;;;;;;;7.93;7.13;;;19.40;99.90;;;;;;5107328;28;20502;-80
2023/09/02 02:20:46;;;;;;;7.40;6.70;;;19.40;99.90;;;;;;5105467;28;20292;-80
2023/09/02 02:23:11;;;;;;;12.07;6.97;;;19.40;99.90;;;;;;5106051;28;20213;-79
2023/09/02 02:25:37;;;;;;;7.20;5.90;;;19.40;99.90;;;;;;5107393;28;20932;-79
2023/09/02 02:28:04;;;;;;;7.93;7.20;;;19.30;99.90;;;;;;5107195;28;20628;-80
2023/09/02 02:30:30;;;;;;;9.20;6.80;;;19.30;99.90;;;;;;5104220;28;20233;-78
2023/09/02 02:32:56;;;;;;;8.17;6.67;;;19.30;99.90;;;;;;5107171;28;20431;-80
2023/09/02 02:35:22;;;;;;;7.00;6.30;;;19.20;99.90;;;;;;5105762;28;20236;-78
2023/09/02 02:37:47;;;;;;;6.37;5.77;;;19.10;99.90;;;;;;5105628;28;20178;-79
2023/09/02 02:40:13;;;;;;;8.73;7.20;;;19.10;99.90;;;;;;5105355;28;20500;-79
2023/09/02 02:42:39;;;;;;;8.97;7.43;;;19.10;99.90;;;;;;5107329;28;20592;-78
2023/09/02 02:45:05;;;;;;;7.33;6.63;;;19.10;99.90;;;;;;5106552;28;20207;-78
2023/09/02 02:47:30;;;;;;;10.67;6.73;;;19.10;99.90;;;;;;5106949;28;20174;-79
2023/09/02 02:49:56;;;;;;;8.03;6.77;;;19.00;99.90;;;;;;5104878;28;20481;-79
2023/09/02 02:52:22;;;;;;;8.00;7.07;;;19.00;99.90;;;;;;5106372;28;20227;-80
2023/09/02 02:54:47;;;;;;;8.20;7.23;;;19.00;99.90;;;;;;5105398;28;20217;-80
2023/09/02 02:57:13;;;;;;;7.60;6.60;;;19.00;99.90;;;;;;5105015;28;20247;-79
2023/09/02 02:59:39;;;;;;;6.87;6.17;;;19.00;99.90;;;;;;5106818;28;20205;-79
2023/09/02 03:02:04;;;;;;;7.77;6.97;;;18.90;99.90;;;;;;5106312;28;20642;-79
2023/09/02 03:04:32;;;;;;;8.37;7.57;;;18.90;99.90;;;;;;5106294;28;20221;-78
2023/09/02 03:06:57;;;;;;;7.37;6.67;;;18.90;99.90;;;;;;5106433;28;20171;-80
2023/09/02 03:09:23;;;;;;;8.40;7.60;;;18.90;99.90;;;;;;5104923;28;20446;-79
2023/09/02 03:11:49;;;;;;;8.00;7.20;;;18.90;99.90;;;;;;5106221;28;20231;-78
2023/09/02 03:14:14;;;;;;;8.30;6.63;;;18.80;99.90;;;;;;5105186;28;20647;-80
2023/09/02 03:16:40;;;;;;;8.93;6.70;;;18.80;99.90;;;;;;5103064;28;20189;-79
2023/09/02 03:19:06;;;;;;;7.70;7.00;;;18.80;99.90;;;;;;5103359;28;20238;-80
2023/09/02 03:21:31;;;;;;;6.60;5.97;;;18.80;99.90;;;;;;5103226;28;20214;-80
2023/09/02 03:23:57;;;;;;;7.43;6.47;;;18.80;99.90;;;;;;5105856;28;20371;-79
2023/09/02 03:26:24;;;;;;;8.60;6.70;;;18.80;99.90;;;;;;5106561;28;20197;-78
2023/09/02 03:28:51;;;;;;;7.80;6.97;;;18.70;99.90;;;;;;5106380;28;20208;-80
2023/09/02 03:31:16;;;;;;;7.63;6.93;;;18.70;99.90;;;;;;5104393;28;20500;-79
2023/09/02 03:33:42;;;;;;;7.47;6.73;;;18.70;99.90;;;;;;5103979;28;20637;-80
2023/09/02 03:36:13;;;;;;;7.33;6.63;;;18.70;99.90;;;;;;5104400;28;20335;-79
2023/09/02 03:38:39;;;;;;;8.40;6.90;;;18.60;99.90;;;;;;5106149;28;20654;-80
2023/09/02 03:41:10;;;;;;;7.87;7.07;;;18.60;99.90;;;;;;5102714;28;20482;-80
2023/09/02 03:43:36;;;;;;;8.10;7.30;;;18.50;99.90;;;;;;5102986;28;20406;-79
2023/09/02 03:46:02;;;;;;;10.10;8.30;;;18.50;99.90;;;;;;5102276;28;20427;-78
2023/09/02 03:48:27;;;;;;;7.73;6.80;;;18.50;99.90;;;;;;5101419;28;20569;-80
2023/09/02 03:50:59;;;;;;;8.60;7.30;;;18.50;99.90;;;;;;5101930;28;20205;-79
2023/09/02 03:53:25;;;;;;;7.30;6.10;;;18.40;99.90;;;;;;5102935;28;20531;-80
2023/09/02 03:55:50;;;;;;;7.83;7.03;;;18.40;99.90;;;;;;5103114;28;20446;-79
2023/09/02 03:58:16;;;;;;;7.90;7.10;;;18.40;99.90;;;;;;5104248;28;20181;-79
2023/09/02 04:00:42;;;;;;;9.53;7.40;;;18.50;99.90;;;;;;5104314;28;20261;-79
2023/09/02 04:03:07;;;;;;;10.17;7.30;;;18.50;99.90;;;;;;5104466;28;20255;-79
2023/09/02 04:05:33;;;;;;;8.63;7.47;;;18.50;99.90;;;;;;5102284;28;20447;-79
2023/09/02 04:07:58;;;;;;;9.67;7.20;;;18.60;99.90;;;;;;5102562;28;20182;-78
2023/09/02 04:10:24;;;;;;;7.47;6.77;;;18.60;99.90;;;;;;5102209;28;20212;-80
2023/09/02 04:12:50;;;;;;;7.70;6.97;;;18.60;99.90;;;;;;5104020;28;20167;-80
2023/09/02 04:15:15;;;;;;;7.97;7.23;;;18.60;99.90;;;;;;5103668;28;20198;-77
2023/09/02 04:17:41;;;;;;;8.17;7.10;;;18.60;99.90;;;;;;5102614;28;20206;-78
2023/09/02 04:20:07;;;;;;;11.70;7.30;;;18.50;99.90;;;;;;5103698;28;20252;-78
2023/09/02 04:22:33;;;;;;;7.97;7.17;;;18.50;99.90;;;;;;5104086;28;20703;-79
2023/09/02 04:24:59;;;;;;;8.53;7.10;;;18.50;99.90;;;;;;5104289;28;20770;-78
2023/09/02 04:27:24;;;;;;;8.20;7.47;;;18.40;99.90;;;;;;5105695;28;20174;-79
2023/09/02 04:29:52;;;;;;;8.73;7.83;;;18.40;99.90;;;;;;5108053;28;20208;-80
2023/09/02 04:32:18;;;;;;;9.13;7.50;;;18.40;99.90;;;;;;5106819;28;20223;-80
2023/09/02 04:34:44;;;;;;;8.30;7.17;;;18.30;99.90;;;;;;5107999;28;20684;-80
2023/09/02 04:37:10;;;;;;;9.00;7.23;;;18.30;99.90;;;;;;5107821;28;20206;-79
2023/09/02 04:39:37;;;;;;;8.03;6.87;;;18.30;99.90;;;;;;5108133;28;20488;-80
2023/09/02 04:42:03;;;;;;;8.43;7.30;;;18.30;99.90;;;;;;5108798;27;20177;-81
2023/09/02 04:44:29;;;;;;;7.73;7.00;;;18.30;99.90;;;;;;5108154;28;21015;-80
2023/09/02 04:46:54;;;;;;;7.20;6.20;;;18.30;99.90;;;;;;5107439;28;20716;-79
2023/09/02 04:49:20;;;;;;;8.90;7.13;;;18.40;99.90;;;;;;5109454;28;20217;-79
2023/09/02 04:51:47;;;;;;;8.00;7.20;;;18.40;99.90;;;;;;5108850;27;20434;-81
2023/09/02 04:54:14;;;;;;;9.00;8.10;;;18.40;99.90;;;;;;5107933;28;20928;-81
2023/09/02 04:56:39;;;;;;;8.50;7.37;;;18.40;99.90;;;;;;5109222;28;20601;-79
2023/09/02 04:59:05;;;;;;;10.30;7.40;;;18.40;99.90;;;;;;5109125;28;20455;-80
2023/09/02 05:01:31;;;;;;;10.27;8.90;;;18.50;99.90;;;;;;5107451;28;20199;-79
2023/09/02 05:03:57;;;;;;;10.13;8.20;;;18.50;99.90;;;;;;5107346;28;20493;-80
2023/09/02 05:06:23;;;;;;;9.60;8.73;;;18.60;99.90;;;;;;5108685;28;20194;-79
2023/09/02 05:08:53;;;;;;;11.40;9.00;;;18.60;99.90;;;;;;5109120;28;20849;-81
2023/09/02 05:11:20;;;;;;;10.60;8.40;;;18.70;99.90;;;;;;5106938;28;20203;-81
2023/09/02 05:13:48;;;;;;;9.53;8.53;;;18.70;99.90;;;;;;5108881;28;20403;-79
2023/09/02 05:16:14;;;;;;;9.73;8.67;;;18.80;99.90;;;;;;5106879;28;20694;-81
2023/09/02 05:18:39;;;;;;;10.43;9.30;;;18.90;99.90;;;;;;5107133;28;20423;-81
2023/09/02 05:21:05;;;;;;;10.80;9.40;;;18.90;99.90;;;;;;5106842;28;20770;-79
2023/09/02 05:23:32;;;;;;;12.20;9.03;;;19.00;99.90;;;;;;5108443;28;20561;-80
2023/09/02 05:25:58;;;;;;;11.20;9.33;;;19.10;99.90;;;;;;5106905;28;20198;-79
2023/09/02 05:28:24;;;;;;;11.57;9.67;;;19.20;99.90;;;;;;5108571;28;20609;-81
2023/09/02 05:30:50;;;;;;;14.07;10.30;;;19.30;99.90;;;;;;5107981;28;20436;-80
2023/09/02 05:33:16;;;;;;;11.77;10.27;;;19.30;99.90;;;;;;5107964;28;20408;-79
2023/09/02 05:35:43;;;;;;;14.23;11.50;;;19.40;99.90;;;;;;5106639;28;20208;-81
2023/09/02 05:38:09;;;;;;;12.13;10.23;;;19.50;99.90;;;;;;5106697;28;20191;-79
2023/09/02 05:40:35;;;;;;;12.73;10.20;;;19.50;99.90;;;;;;5107810;28;21036;-80
2023/09/02 05:43:01;;;;;;;12.73;10.33;;;19.60;99.90;;;;;;5106602;28;21049;-80
2023/09/02 05:45:26;;;;;;;11.23;10.03;;;19.70;99.90;;;;;;5108072;28;20451;-79
2023/09/02 05:47:52;;;;;;;14.93;10.70;;;19.80;99.90;;;;;;5107004;28;20168;-79
2023/09/02 05:50:18;;;;;;;12.27;10.17;;;19.80;99.90;;;;;;5108217;28;20195;-80
2023/09/02 05:52:43;;;;;;;10.97;9.47;;;19.90;99.90;;;;;;5108144;28;20163;-79
2023/09/02 05:55:09;;;;;;;11.70;9.23;;;20.00;99.90;;;;;;5106449;28;20195;-80
2023/09/02 05:57:35;;;;;;;13.43;11.07;;;20.00;99.90;;;;;;5107977;28;20164;-80
2023/09/02 06:00:03;;;;;;;14.80;11.60;;;20.10;99.90;;;;;;5106736;28;20440;-79
2023/09/02 06:02:33;;;;;;;14.00;10.33;;;20.10;99.90;;;;;;5106724;28;20682;-80
2023/09/02 06:04:58;;;;;;;11.47;10.10;;;20.20;99.90;;;;;;5107518;28;20978;-80
2023/09/02 06:07:24;;;;;;;11.70;9.87;;;20.20;99.90;;;;;;5107592;28;20426;-81
2023/09/02 06:09:50;;;;;;;12.93;11.00;;;20.30;99.90;;;;;;5107841;28;20203;-81
2023/09/02 06:12:16;;;;;;;12.17;10.60;;;20.30;99.90;;;;;;5107496;28;20168;-80
2023/09/02 06:14:42;;;;;;;11.97;9.70;;;20.40;99.90;;;;;;5107315;28;20443;-79
2023/09/02 06:17:08;;;;;;;11.53;10.33;;;20.50;99.90;;;;;;5107297;28;20171;-79
2023/09/02 06:19:35;;;;;;;12.73;10.23;;;20.50;99.90;;;;;;5106026;28;20235;-81
2023/09/02 06:22:00;;;;;;;10.83;9.37;;;20.60;99.90;;;;;;5105774;28;20422;-80
2023/09/02 06:24:29;;;;;;;12.47;9.83;;;20.70;99.90;;;;;;5107726;28;20499;-79
2023/09/02 06:26:55;;;;;;;12.30;10.37;;;20.90;99.90;;;;;;5104106;28;20179;-80
2023/09/02 06:29:21;;;;;;;10.70;8.37;;;20.90;99.90;;;;;;5106088;28;20614;-81
2023/09/02 06:31:46;;;;;;;10.00;9.00;;;21.00;99.90;;;;;;5104025;28;20714;-81
2023/09/02 06:34:12;;;;;;;9.20;8.23;;;21.10;99.90;;;;;;5086640;28;20264;-79
2023/09/02 06:36:39;;;;;;;10.73;9.63;;;21.20;99.90;;;;;;5084448;28;20710;-80
2023/09/02 06:39:04;;;;;;;10.13;8.63;;;21.20;99.90;;;;;;5099812;28;20502;-79
2023/09/02 06:41:30;;;;;;;9.87;7.87;;;21.30;99.90;;;;;;5103481;28;20478;-79
2023/09/02 06:43:56;;;;;;;10.00;8.00;;;21.40;99.90;;;;;;5107016;28;20212;-79
2023/09/02 06:46:22;;;;;;;10.30;9.03;;;21.40;99.90;;;;;;5106875;28;20492;-80
2023/09/02 06:48:48;;;;;;;10.20;8.43;;;21.60;99.90;;;;;;5106908;28;20459;-80
2023/09/02 06:51:15;;;;;;;10.20;7.73;;;21.70;99.90;;;;;;5122189;27;20501;-80
2023/09/02 06:53:41;;;;;;;9.37;8.00;;;21.80;99.90;;;;;;5122435;27;20422;-80
2023/09/02 06:56:08;;;;;;;10.10;7.93;;;21.90;99.90;;;;;;5120987;27;20575;-80
2023/09/02 06:58:36;;;;;;;10.03;8.23;;;22.00;99.90;;;;;;5121248;27;20810;-81
2023/09/02 07:01:02;;;;;;;8.53;7.73;;;22.10;99.90;;;;;;5120440;27;20447;-79
2023/09/02 07:03:28;;;;;;;10.67;8.20;;;22.20;99.90;;;;;;5105091;28;20453;-80
2023/09/02 07:05:53;;;;;;;7.90;6.90;;;22.30;99.90;;;;;;5120280;27;20287;-79
2023/09/02 07:08:19;;;;;;;8.43;7.10;;;22.40;99.90;;;;;;5120749;27;20402;-81
2023/09/02 07:10:45;;;;;;;7.07;6.37;;;22.50;99.90;;;;;;5121396;27;20236;-81
2023/09/02 07:13:11;;;;;;;7.33;6.50;;;22.60;99.90;;;;;;5106603;28;20829;-80
2023/09/02 07:15:36;;;;;;;7.83;7.03;;;22.70;99.90;;;;;;5122174;27;20195;-80
2023/09/02 07:18:02;;;;;;;8.47;7.57;;;22.90;99.90;;;;;;5121995;27;20319;-80
2023/09/02 07:20:28;;;;;;;7.07;6.33;;;23.00;99.90;;;;;;5121828;27;20754;-80
2023/09/02 07:22:53;;;;;;;8.00;6.10;;;23.10;99.90;;;;;;5106159;28;20598;-80
2023/09/02 07:25:19;;;;;;;7.03;6.27;;;23.20;99.90;;;;;;5122206;27;20251;-80
2023/09/02 07:27:45;;;;;;;6.20;5.60;;;23.40;99.90;;;;;;5106030;28;20168;-80
2023/09/02 07:30:11;;;;;;;5.23;4.77;;;23.50;99.90;;;;;;5105877;28;20206;-80
2023/09/02 07:32:36;;;;;;;8.37;5.73;;;23.60;99.90;;;;;;5121647;27;20169;-80
2023/09/02 07:35:02;;;;;;;5.77;5.20;;;23.70;99.90;;;;;;5105987;28;20505;-80
2023/09/02 07:37:28;;;;;;;6.57;5.50;;;23.80;99.90;;;;;;5106314;28;20175;-80
2023/09/02 07:39:54;;;;;;;5.40;4.90;;;24.00;99.90;;;;;;5120859;27;20255;-80
2023/09/02 07:42:20;;;;;;;6.03;5.43;;;24.00;99.90;;;;;;5121255;27;20260;-80
2023/09/02 07:44:46;;;;;;;7.10;6.43;;;24.10;99.90;;;;;;5121634;27;20476;-80
2023/09/02 07:47:11;;;;;;;7.00;6.30;;;24.20;99.90;;;;;;5121647;27;20210;-80
2023/09/02 07:49:37;;;;;;;5.43;4.90;;;24.30;99.90;;;;;;5121467;27;20235;-79
2023/09/02 07:52:03;;;;;;;7.23;5.90;;;24.40;99.90;;;;;;5105441;28;20206;-79
2023/09/02 07:54:28;;;;;;;6.83;6.20;;;24.50;99.90;;;;;;5121629;27;20207;-81
2023/09/02 07:56:54;;;;;;;5.50;5.00;;;24.60;99.90;;;;;;5121618;28;20182;-80
2023/09/02 07:59:19;;;;;;;4.73;4.23;;;24.70;99.90;;;;;;5106115;28;20611;-81
2023/09/02 08:01:45;;;;;;;5.10;4.23;;;24.80;99.90;;;;;;5122082;27;20637;-80
2023/09/02 08:04:11;;;;;;;4.33;4.03;;;24.90;99.90;;;;;;5125856;27;20219;-80
2023/09/02 08:06:37;;;;;;;4.83;4.43;;;25.00;99.90;;;;;;5125389;27;20206;-80
2023/09/02 08:09:03;;;;;;;4.90;4.40;;;25.10;99.90;;;;;;5109986;28;20233;-80
2023/09/02 08:11:28;;;;;;;5.07;4.10;;;25.20;99.90;;;;;;5125445;27;20955;-80
2023/09/02 08:13:54;;;;;;;4.03;3.63;;;25.30;99.90;;;;;;5125628;27;20179;-80
2023/09/02 08:16:20;;;;;;;4.10;3.70;;;25.40;99.90;;;;;;5125416;27;20474;-80
2023/09/02 08:18:45;;;;;;;3.30;2.97;;;25.50;99.90;;;;;;5109743;28;20167;-80
2023/09/02 08:21:11;;;;;;;5.13;3.60;;;25.60;99.90;;;;;;5125368;27;20394;-80
2023/09/02 08:23:38;;;;;;;3.77;3.47;;;25.70;99.90;;;;;;5109365;28;20237;-79
2023/09/02 08:26:13;;;;;;;4.90;3.70;;;25.80;99.90;;;;;;5125245;27;20523;-80
2023/09/02 08:28:40;;;;;;;3.37;3.13;;;25.90;99.90;;;;;;5109457;28;20430;-80
2023/09/02 08:31:06;;;;;;;4.00;3.70;;;26.00;99.90;;;;;;5125308;27;20443;-79
2023/09/02 08:33:32;;;;;;;3.40;3.10;;;26.10;99.90;;;;;;5125142;27;20405;-80
2023/09/02 08:35:58;;;;;;;3.40;3.10;;;26.20;99.90;;;;;;5125104;27;20202;-80
2023/09/02 08:38:24;;;;;;;3.80;3.50;;;26.30;99.90;;;;;;5109130;28;20552;-79
2023/09/02 08:40:55;;;;;;;3.17;2.87;;;26.40;99.90;;;;;;5124491;27;20445;-80
2023/09/02 08:43:21;;;;;;;3.93;3.60;;;26.60;99.90;;;;;;5125250;27;20354;-80
2023/09/02 08:45:52;;;;;;;3.43;3.20;;;27.20;99.90;;;;;;5109026;28;20474;-80
2023/09/02 08:48:23;;;;;;;2.87;2.67;;;28.00;99.90;;;;;;5109176;28;20602;-79
2023/09/02 08:50:50;;;;;;;2.80;2.60;;;28.80;99.90;;;;;;5123508;27;20730;-80
2023/09/02 08:53:16;;;;;;;3.33;3.03;;;29.60;99.90;;;;;;5123194;27;20445;-79
2023/09/02 08:55:44;;;;;;;2.73;2.57;;;29.90;99.90;;;;;;5122956;27;20461;-79
2023/09/02 08:58:12;;;;;;;2.67;2.47;;;29.80;99.90;;;;;;5107418;27;20403;-79
2023/09/02 09:00:39;;;;;;;3.13;2.83;;;29.50;99.90;;;;;;5123235;27;20455;-79
2023/09/02 09:03:06;;;;;;;3.00;2.70;;;29.20;99.90;;;;;;5107489;28;21254;-79
2023/09/02 09:05:32;;;;;;;3.00;2.80;;;28.90;99.90;;;;;;5108323;28;20958;-80
2023/09/02 09:08:00;;;;;;;3.53;2.53;;;28.70;99.70;;;;;;5124306;27;20958;-79
2023/09/02 09:10:27;;;;;;;2.93;2.73;;;28.50;99.90;;;;;;5108896;28;20513;-80
2023/09/02 09:12:55;;;;;;;2.90;2.60;;;28.40;99.90;;;;;;5124128;27;20443;-80
2023/09/02 09:15:22;;;;;;;2.80;2.60;;;28.40;99.60;;;;;;5108889;28;20451;-80
2023/09/02 09:17:49;;;;;;;3.27;2.97;;;28.30;99.20;;;;;;5124352;27;20411;-79
2023/09/02 09:20:15;;;;;;;2.83;2.63;;;28.20;99.40;;;;;;5123959;27;20534;-79
2023/09/02 09:22:41;;;;;;;3.30;3.00;;;28.20;99.50;;;;;;5108654;28;20511;-80
2023/09/02 09:25:07;;;;;;;3.20;2.90;;;28.20;99.70;;;;;;5108587;28;21030;-79
2023/09/02 09:27:34;;;;;;;3.20;3.00;;;28.20;99.30;;;;;;5124878;27;21056;-80
2023/09/02 09:30:00;;;;;;;2.87;2.60;;;28.20;99.90;;;;;;5124076;27;20459;-80
2023/09/02 09:32:26;;;;;;;2.40;2.20;;;28.20;99.50;;;;;;5123938;27;20403;-79
2023/09/02 09:34:51;;;;;;;2.90;2.70;;;28.20;98.80;;;;;;5124060;27;20931;-80
2023/09/02 09:37:17;;;;;;;3.07;2.20;;;28.20;99.90;;;;;;5124076;27;20181;-80
2023/09/02 09:39:44;;;;;;;2.37;2.17;;;28.20;99.70;;;;;;5108093;28;20590;-80
2023/09/02 09:42:14;;;;;;;2.70;2.50;;;28.30;99.40;;;;;;5122958;27;20496;-80
2023/09/02 09:44:55;;;;;;;2.50;2.30;;;28.30;99.40;;;;;;5124169;27;20452;-80
2023/09/02 09:47:22;;;;;;;2.80;2.60;;;28.30;98.60;;;;;;5108109;28;20498;-80
2023/09/02 09:49:49;;;;;;;2.60;2.40;;;28.40;98.70;;;;;;5123747;27;21045;-80
2023/09/02 09:52:16;;;;;;;2.60;2.40;;;28.40;97.10;;;;;;5123328;27;20416;-80
2023/09/02 09:54:47;;;;;;;1.80;1.70;;;28.40;96.90;;;;;;5123821;27;20446;-81
2023/09/02 09:57:35;;;;;;;2.33;2.13;;;28.40;96.90;;;;;;5123587;27;20451;-79
2023/09/02 10:00:01;;;;;;;2.90;2.60;;;28.40;97.00;;;;;;5110237;27;20455;-85
2023/09/02 10:02:27;;;;;;;2.53;2.33;;;28.50;96.40;;;;;;5101223;28;20511;-81
2023/09/02 10:04:55;;;;;;;2.50;2.00;;;28.50;96.50;;;;;;5105157;28;20730;-80
2023/09/02 10:07:27;;;;;;;2.33;2.13;;;28.50;96.80;;;;;;5107169;28;20583;-78
2023/09/02 10:09:55;;;;;;;2.70;2.50;;;28.60;95.90;;;;;;5104836;28;20451;-78
2023/09/02 10:12:21;;;;;;;2.30;2.10;;;28.60;96.20;;;;;;5107309;28;20397;-81
2023/09/02 10:14:49;;;;;;;2.70;2.50;;;28.60;95.50;;;;;;5104712;28;20459;-78
2023/09/02 10:17:15;;;;;;;3.00;2.70;;;28.60;94.60;;;;;;5107189;28;20392;-78
2023/09/02 10:19:41;;;;;;;2.80;2.60;;;28.60;94.20;;;;;;5104410;28;20847;-79
2023/09/02 10:22:07;;;;;;;2.30;2.10;;;28.60;94.40;;;;;;5103711;28;20846;-79
2023/09/02 10:24:53;;;;;;;3.17;2.87;;;28.70;94.20;;;;;;5105415;28;20440;-79
2023/09/02 10:27:23;;;;;;;2.77;2.57;;;28.70;93.50;;;;;;5104115;28;20967;-81
2023/09/02 10:29:57;;;;;;;2.20;2.10;;;28.70;94.50;;;;;;5103881;28;21129;-80
2023/09/02 10:32:44;;;;;;;2.83;2.53;;;28.80;94.00;;;;;;5105013;28;20402;-80
2023/09/02 10:35:17;;;;;;;2.90;2.70;;;28.80;93.90;;;;;;5105340;28;20516;-81
2023/09/02 10:38:00;;;;;;;3.33;2.80;;;28.80;94.10;;;;;;5104013;28;20841;-77
2023/09/02 10:40:38;;;;;;;2.90;2.60;;;28.90;93.90;;;;;;5105670;28;20498;-82
2023/09/02 10:43:04;;;;;;;2.60;2.23;;;28.90;94.90;;;;;;5106401;28;20617;-77
2023/09/02 10:45:31;;;;;;;2.50;2.30;;;29.00;94.70;;;;;;5105427;28;20461;-81
2023/09/02 10:47:58;;;;;;;2.50;2.30;;;29.10;93.40;;;;;;5105403;28;20172;-77
2023/09/02 10:50:24;;;;;;;3.00;2.73;;;29.10;92.70;;;;;;5105535;28;20455;-77
2023/09/02 10:52:50;;;;;;;2.43;2.23;;;29.10;92.90;;;;;;5106563;28;20504;-77
2023/09/02 10:55:16;;;;;;;2.37;2.17;;;29.20;94.10;;;;;;5106790;28;20458;-76
2023/09/02 10:57:56;;;;;;;2.30;2.10;;;29.20;93.90;;;;;;5106843;28;20405;-77
2023/09/02 11:00:26;;;;;;;3.13;2.10;;;29.20;93.00;;;;;;5105369;28;20291;-78
2023/09/02 11:02:59;;;;;;;2.40;2.20;;;29.30;93.50;;;;;;5106622;28;20471;-78
2023/09/02 11:05:27;;;;;;;2.43;2.23;;;29.30;92.90;;;;;;5106564;28;20453;-83
2023/09/02 11:07:54;;;;;;;3.70;2.73;;;29.30;92.90;;;;;;5104702;28;20825;-82
2023/09/02 11:10:20;;;;;;;2.70;2.50;;;29.30;93.00;;;;;;5106107;28;20833;-80
2023/09/02 11:13:06;;;;;;;2.30;2.10;;;29.30;93.30;;;;;;5105211;28;20852;-79
2023/09/02 11:15:34;;;;;;;2.47;2.27;;;29.40;93.60;;;;;;5104888;28;20551;-80
2023/09/02 11:18:28;;;;;;;2.40;2.23;;;29.40;93.80;;;;;;5106232;28;20496;-79
2023/09/02 11:20:54;;;;;;;2.23;2.13;;;29.40;92.40;;;;;;5096688;28;20494;-81
2023/09/02 11:23:23;;;;;;;2.40;2.20;;;29.40;93.00;;;;;;5084047;28;21055;-82
2023/09/02 11:26:04;;;;;;;2.40;2.20;;;29.40;92.60;;;;;;5082878;28;20206;-79
2023/09/02 11:28:30;;;;;;;2.67;2.47;;;29.50;93.00;;;;;;5084695;28;20458;-79
2023/09/02 11:31:04;;;;;;;2.70;2.50;;;29.50;93.60;;;;;;5085759;28;20562;-80
2023/09/02 11:33:30;;;;;;;2.50;2.30;;;29.50;94.30;;;;;;5085935;28;20414;-80
2023/09/02 11:36:10;;;;;;;2.03;1.90;;;29.50;93.60;;;;;;5083791;28;20548;-79
2023/09/02 11:38:36;;;;;;;2.60;2.40;;;29.50;93.60;;;;;;5084274;28;20501;-81
2023/09/02 11:41:02;;;;;;;2.47;2.27;;;29.60;93.20;;;;;;5083925;28;20533;-82
2023/09/02 11:43:31;;;;;;;2.97;2.10;;;29.60;92.20;;;;;;5083465;28;20210;-79
2023/09/02 11:45:58;;;;;;;2.60;2.40;;;29.70;92.10;;;;;;5084038;28;20475;-79
2023/09/02 11:48:28;;;;;;;2.67;2.47;;;29.70;91.30;;;;;;5097718;28;20430;-81
2023/09/02 11:50:58;;;;;;;2.43;2.23;;;29.60;91.50;;;;;;5120683;27;20883;-80
2023/09/02 11:53:27;;;;;;;2.30;2.10;;;29.60;91.60;;;;;;5104923;28;20415;-80
2023/09/02 11:55:53;;;;;;;3.00;1.97;;;29.60;90.50;;;;;;5121370;27;20529;-80
2023/09/02 11:58:19;;;;;;;3.40;2.10;;;29.60;90.50;;;;;;5121770;28;21010;-80
2023/09/02 12:00:45;;;;;;;1.83;1.70;;;29.70;89.20;;;;;;5121602;28;20313;-80
2023/09/02 12:03:15;;;;;;;1.77;1.63;;;29.70;90.30;;;;;;5121487;28;20840;-82
2023/09/02 12:05:49;;;;;;;2.30;2.20;;;29.70;90.30;;;;;;5121426;28;20462;-80
2023/09/02 12:08:16;;;;;;;1.73;1.63;;;29.80;88.80;;;;;;5105191;28;20399;-82
2023/09/02 12:10:45;;;;;;;2.37;2.17;;;29.80;88.10;;;;;;5119491;28;20455;-79
2023/09/02 12:13:10;;;;;;;2.30;2.10;;;29.80;88.30;;;;;;5119626;28;20743;-80
2023/09/02 12:15:36;;;;;;;2.10;1.97;;;29.80;90.20;;;;;;5119824;28;20863;-82
2023/09/02 12:18:03;;;;;;;2.10;1.90;;;29.90;89.80;;;;;;5103840;28;20694;-79
2023/09/02 12:20:29;;;;;;;1.67;1.57;;;29.90;90.00;;;;;;5119564;28;20650;-80
2023/09/02 12:22:55;;;;;;;2.70;1.70;;;29.90;91.30;;;;;;5119652;28;20851;-82
2023/09/02 12:25:22;;;;;;;1.83;1.73;;;29.90;87.80;;;;;;5120513;28;20515;-79
2023/09/02 12:27:49;;;;;;;1.90;1.80;;;30.00;87.60;;;;;;5105906;28;20164;-80
2023/09/02 12:30:26;;;;;;;4.60;2.10;;;30.10;88.90;;;;;;5120044;28;20834;-80
2023/09/02 12:32:51;;;;;;;1.67;1.57;;;30.10;86.30;;;;;;5121096;28;21021;-82
2023/09/02 12:35:17;;;;;;;2.77;2.20;;;30.20;86.50;;;;;;5121171;28;20459;-83
2023/09/02 12:37:43;;;;;;;3.73;1.90;;;30.20;85.40;;;;;;5121452;28;20293;-80
2023/09/02 12:40:15;;;;;;;2.30;2.10;;;30.20;85.30;;;;;;5105172;28;20214;-82
2023/09/02 12:42:42;;;;;;;1.80;1.70;;;30.20;86.00;;;;;;5105386;28;20536;-80
2023/09/02 12:45:09;;;;;;;2.73;2.03;;;30.20;85.00;;;;;;5120145;28;20960;-81
2023/09/02 12:47:36;;;;;;;1.73;1.63;;;30.10;86.30;;;;;;5105343;28;20669;-80